Time;durP1;ratioP1;P1;durP2;ratioP2;P2;SDS_P1;SDS_P2;PMS_P1;PMS_P2;Temp;Humidity;BMP_temperature;BMP_pressure;BME280_temperature;BME280_humidity;BME280_pressure;Samples;Min_cycle;Max_cycle;Signal;HPM_P1;HPM_P2
2022/11/20 00:02:19;;;;;;;24.85;15.20;;;;;;;-0.42;77.85;99935.02;2766893;82;21043;-87
2022/11/20 00:06:22;;;;;;;20.35;15.20;;;;;;;-0.44;78.03;99936.41;2786400;83;21091;-86
2022/11/20 00:10:24;;;;;;;21.57;15.83;;;;;;;-0.49;78.24;99922.66;2792092;83;21032;-86
2022/11/20 00:14:25;;;;;;;26.55;17.30;;;;;;;-0.44;78.35;99926.78;2796589;84;21060;-86
2022/11/20 00:18:27;;;;;;;23.87;19.20;;;;;;;-0.37;77.91;99915.61;2829264;82;21024;-86
2022/11/20 00:22:29;;;;;;;24.75;17.77;;;;;;;-0.32;77.93;99915.43;2778134;83;20993;-86
2022/11/20 00:26:30;;;;;;;27.62;17.65;;;;;;;-0.27;77.94;99913.94;2802784;84;21027;-86
2022/11/20 00:30:32;;;;;;;33.78;17.05;;;;;;;-0.20;78.13;99917.50;2831059;82;21067;-86
2022/11/20 00:34:33;;;;;;;33.73;18.17;;;;;;;-0.14;78.33;99916.39;2756214;85;21495;-85
2022/11/20 00:38:36;;;;;;;30.65;21.82;;;;;;;-0.11;78.63;99914.11;2796430;83;21062;-86
2022/11/20 00:42:37;;;;;;;28.52;19.05;;;;;;;-0.19;78.05;99917.92;2809188;83;21638;-87
2022/11/20 00:46:39;;;;;;;26.12;16.90;;;;;;;-0.24;77.77;99922.47;2788332;83;21078;-87
2022/11/20 00:50:41;;;;;;;29.85;18.75;;;;;;;-0.50;77.34;99932.27;2791080;82;20997;-87
2022/11/20 00:54:42;;;;;;;45.33;28.42;;;;;;;-0.87;78.64;99936.39;2814502;84;21099;-86
2022/11/20 00:58:47;;;;;;;40.15;28.50;;;;;;;-1.03;79.65;99936.16;2787373;84;21008;-86
2022/11/20 01:02:48;;;;;;;44.93;23.10;;;;;;;-1.02;80.24;99932.63;2813136;82;21123;-87
2022/11/20 01:06:49;;;;;;;46.68;25.68;;;;;;;-0.97;80.05;99934.59;2781236;84;21501;-87
2022/11/20 01:10:50;;;;;;;29.27;19.23;;;;;;;-0.88;80.14;99938.60;2801463;83;21059;-87
2022/11/20 01:14:52;;;;;;;27.37;18.42;;;;;;;-0.80;79.80;99943.52;2824576;82;21086;-86
2022/11/20 01:19:05;;;;;;;40.90;17.95;;;;;;;-0.74;79.94;99945.88;2805379;82;21080;-87
2022/11/20 01:23:06;;;;;;;33.40;20.10;;;;;;;-0.75;79.21;99941.56;2808502;82;21611;-87
2022/11/20 01:27:08;;;;;;;43.45;26.42;;;;;;;-0.94;79.68;99950.61;2796100;83;21048;-87
2022/11/20 01:31:22;;;;;;;38.38;22.35;;;;;;;-1.18;81.04;99949.33;2755717;83;20992;-87
2022/11/20 01:35:24;;;;;;;37.00;23.57;;;;;;;-1.36;82.19;99946.53;2802778;82;21566;-87
2022/11/20 01:39:26;;;;;;;39.45;22.52;;;;;;;-1.71;84.40;99950.00;2804129;83;21096;-87
2022/11/20 01:43:29;;;;;;;40.03;21.10;;;;;;;-1.98;84.76;99938.33;2806240;82;20981;-87
2022/11/20 01:47:44;;;;;;;36.60;22.17;;;;;;;-2.03;84.41;99931.13;2800441;83;21379;-87
2022/11/20 01:51:59;;;;;;;39.33;23.75;;;;;;;-2.03;84.97;99928.09;2812070;82;21024;-87
2022/11/20 01:56:03;;;;;;;41.30;26.10;;;;;;;-1.98;84.37;99923.16;2783720;84;21032;-87
2022/11/20 02:00:12;;;;;;;40.73;25.72;;;;;;;-1.96;83.59;99926.55;2794237;83;21048;-87
2022/11/20 02:04:15;;;;;;;40.40;24.77;;;;;;;-1.89;83.26;99924.98;2754132;83;21064;-86
2022/11/20 02:08:18;;;;;;;42.73;25.02;;;;;;;-1.83;82.87;99920.00;2820699;82;21028;-87
2022/11/20 02:16:46;;;;;;;42.78;28.55;;;;;;;-1.97;82.59;99919.17;2809650;83;21036;-87
2022/11/20 02:20:53;;;;;;;49.27;28.92;;;;;;;-1.96;82.67;99910.47;2799230;83;21016;-86
2022/11/20 02:24:54;;;;;;;40.83;24.47;;;;;;;-1.83;83.03;99912.62;2769435;83;21095;-87
2022/11/20 02:28:58;;;;;;;42.67;26.40;;;;;;;-1.79;81.64;99912.45;2791510;84;21140;-87
2022/11/20 02:33:00;;;;;;;33.78;22.02;;;;;;;-1.87;81.91;99920.56;2819545;82;21609;-87
2022/11/20 02:37:02;;;;;;;35.63;22.20;;;;;;;-2.01;82.05;99921.50;2799717;82;21020;-87
2022/11/20 02:41:03;;;;;;;36.33;20.35;;;;;;;-2.01;82.52;99921.50;2792148;84;21016;-87
2022/11/20 02:45:06;;;;;;;27.22;16.70;;;;;;;-1.97;82.18;99913.95;2807085;82;20996;-87
2022/11/20 02:49:08;;;;;;;36.28;18.30;;;;;;;-2.14;82.97;99916.34;2784548;83;21052;-87
2022/11/20 02:53:09;;;;;;;29.92;17.07;;;;;;;-2.19;83.41;99917.33;2800153;82;21050;-87
2022/11/20 02:57:10;;;;;;;29.82;18.87;;;;;;;-2.27;84.25;99909.37;2816630;83;21068;-87
2022/11/20 03:01:11;;;;;;;27.13;16.15;;;;;;;-2.24;84.21;99919.25;2811884;84;21040;-87
2022/11/20 03:05:13;;;;;;;30.32;16.37;;;;;;;-2.21;84.88;99920.44;2794762;82;21523;-87
2022/11/20 03:09:14;;;;;;;23.57;14.58;;;;;;;-2.11;84.42;99917.53;2816792;81;21333;-87
2022/11/20 03:13:16;;;;;;;26.75;15.83;;;;;;;-2.04;83.97;99918.56;2785366;84;21016;-87
2022/11/20 03:17:17;;;;;;;23.18;15.90;;;;;;;-1.87;84.15;99919.69;2813296;82;21028;-86
2022/11/20 03:21:18;;;;;;;23.45;14.07;;;;;;;-1.70;83.25;99922.14;2798786;82;21638;-87
2022/11/20 03:25:20;;;;;;;21.05;13.15;;;;;;;-1.54;83.42;99928.97;2817234;84;21012;-87
2022/11/20 03:29:21;;;;;;;22.60;14.60;;;;;;;-1.49;81.49;99922.64;2801492;82;21119;-86
2022/11/20 03:33:22;;;;;;;25.25;13.88;;;;;;;-1.53;81.12;99922.84;2819502;83;21044;-86
2022/11/20 03:37:24;;;;;;;20.37;12.98;;;;;;;-1.47;81.42;99923.46;2814290;84;21032;-87
2022/11/20 03:41:29;;;;;;;26.20;16.10;;;;;;;-1.45;80.19;99920.34;2837618;82;21040;-86
2022/11/20 03:45:30;;;;;;;20.62;12.30;;;;;;;-1.37;80.43;99917.87;2881787;80;21427;-87
2022/11/20 03:49:31;;;;;;;22.87;12.68;;;;;;;-1.34;79.72;99922.98;2879339;82;21561;-86
2022/11/20 03:53:32;;;;;;;24.02;15.65;;;;;;;-1.42;79.28;99922.44;2867987;81;21055;-86
2022/11/20 03:57:34;;;;;;;35.10;21.48;;;;;;;-1.54;79.39;99921.14;2890681;80;21039;-87
2022/11/20 04:01:39;;;;;;;29.27;16.65;;;;;;;-1.64;79.37;99921.47;2867187;80;20984;-86
2022/11/20 04:05:40;;;;;;;41.17;22.60;;;;;;;-1.72;79.31;99919.14;2848877;82;21023;-87
2022/11/20 04:09:42;;;;;;;38.35;24.05;;;;;;;-1.86;80.28;99927.94;2861330;82;20972;-87
2022/11/20 04:13:54;;;;;;;50.88;28.57;;;;;;;-1.86;80.28;99927.94;2881863;80;21030;-87
2022/11/20 04:17:55;;;;;;;45.08;25.90;;;;;;;-1.85;80.39;99930.08;2880913;80;21673;-86
2022/11/20 04:21:57;;;;;;;32.40;19.80;;;;;;;-2.03;80.41;99901.16;2863053;81;21070;-87
2022/11/20 04:26:08;;;;;;;34.53;20.65;;;;;;;-1.92;80.63;99915.10;2880018;82;21051;-87
2022/11/20 04:30:11;;;;;;;33.95;20.10;;;;;;;-2.03;81.10;99925.91;2851574;82;21536;-87
2022/11/20 04:34:12;;;;;;;25.05;15.30;;;;;;;-2.11;81.53;99928.79;2888766;80;20992;-86
2022/11/20 04:38:13;;;;;;;24.80;18.20;;;;;;;-2.14;81.33;99924.99;2883498;82;21031;-87
2022/11/20 04:42:30;;;;;;;29.07;19.15;;;;;;;-2.23;82.40;99920.95;2848250;82;21642;-86
2022/11/20 04:46:35;;;;;;;29.82;18.32;;;;;;;-2.23;82.56;99922.72;2797902;82;21678;-87
2022/11/20 04:50:40;;;;;;;22.90;14.43;;;;;;;-2.19;82.15;99922.54;2818791;82;21095;-87
2022/11/20 04:54:41;;;;;;;29.85;18.45;;;;;;;-2.47;82.90;99901.36;2774122;83;21060;-87
2022/11/20 04:58:43;;;;;;;23.65;17.05;;;;;;;-2.47;82.90;99901.36;2823339;83;21068;-87
2022/11/20 05:02:44;;;;;;;25.08;14.83;;;;;;;-2.63;84.00;99914.49;2798980;83;21559;-87
2022/11/20 05:06:45;;;;;;;22.27;14.63;;;;;;;-2.78;84.13;99906.28;2804073;82;21060;-87
2022/11/20 05:10:47;;;;;;;30.95;15.90;;;;;;;-2.78;84.13;99906.28;2774721;83;21008;-87
2022/11/20 05:14:48;;;;;;;28.52;17.32;;;;;;;-2.82;83.97;99909.89;2821057;82;21020;-87
2022/11/20 05:18:52;;;;;;;24.65;12.23;;;;;;;-2.79;83.55;99903.27;2813514;83;21079;-87
2022/11/20 05:22:58;;;;;;;26.07;14.07;;;;;;;-2.65;83.40;99904.58;2816841;83;21302;-87
2022/11/20 05:26:59;;;;;;;24.85;13.88;;;;;;;-2.54;82.93;99903.78;2794906;83;21139;-87
2022/11/20 05:31:11;;;;;;;32.80;15.95;;;;;;;-2.40;82.68;99895.93;2810676;84;21403;-87
2022/11/20 05:35:12;;;;;;;35.40;20.50;;;;;;;-2.24;82.35;99897.57;2766770;84;21567;-87
2022/11/20 05:39:13;;;;;;;31.40;18.55;;;;;;;-2.07;82.60;99891.28;2802743;82;21084;-87
2022/11/20 05:43:15;;;;;;;28.15;15.90;;;;;;;-2.01;81.25;99888.91;2795995;82;21645;-87
2022/11/20 05:47:16;;;;;;;21.87;15.35;;;;;;;-2.01;81.06;99881.09;2914309;80;21066;-88
2022/11/20 05:51:19;;;;;;;21.07;13.13;;;;;;;-1.92;80.81;99863.83;2900335;80;21034;-88
2022/11/20 05:55:20;;;;;;;21.97;12.25;;;;;;;-1.92;80.81;99863.83;2870878;80;21023;-88
2022/11/20 05:59:22;;;;;;;28.32;16.12;;;;;;;-1.68;80.45;99872.08;2874216;82;21059;-87
2022/11/20 06:03:23;;;;;;;25.25;13.32;;;;;;;-1.56;79.98;99878.14;2898911;80;20999;-88
2022/11/20 06:07:24;;;;;;;24.85;15.58;;;;;;;-1.45;79.46;99864.24;2877982;81;21379;-87
2022/11/20 06:11:26;;;;;;;25.60;16.95;;;;;;;-1.39;78.59;99868.81;2889916;80;21887;-88
2022/11/20 06:15:27;;;;;;;26.75;14.50;;;;;;;-1.44;77.86;99850.28;2876434;81;21189;-87
2022/11/20 06:19:28;;;;;;;23.77;12.53;;;;;;;-1.44;77.86;99850.28;2888178;80;21030;-87
2022/11/20 06:23:32;;;;;;;32.20;16.55;;;;;;;-1.51;77.27;99861.84;2858454;82;21027;-87
2022/11/20 06:27:33;;;;;;;26.10;17.42;;;;;;;-1.58;77.67;99861.70;2882778;82;21047;-87
2022/11/20 06:31:37;;;;;;;28.25;19.90;;;;;;;-1.60;78.05;99866.96;2884341;80;21029;-86
2022/11/20 06:35:38;;;;;;;34.88;22.15;;;;;;;-1.55;78.34;99869.88;2862237;81;21037;-87
2022/11/20 06:39:39;;;;;;;32.98;19.67;;;;;;;-1.52;78.65;99865.84;2870431;82;21081;-87
2022/11/20 06:43:40;;;;;;;32.40;18.45;;;;;;;-1.47;78.04;99868.67;2845796;80;21041;-87
2022/11/20 06:47:42;;;;;;;29.18;17.65;;;;;;;-1.35;78.01;99869.09;2812910;82;21540;-87
2022/11/20 06:51:43;;;;;;;28.75;18.20;;;;;;;-1.27;77.84;99867.48;2790665;82;21552;-87
2022/11/20 06:55:46;;;;;;;31.15;18.40;;;;;;;-1.18;77.56;99868.41;2786053;82;21582;-87
2022/11/20 06:59:48;;;;;;;32.75;19.07;;;;;;;-1.09;77.41;99864.14;2870031;81;21013;-86
2022/11/20 07:03:50;;;;;;;26.85;16.65;;;;;;;-1.02;77.67;99856.44;2823660;82;21036;-86
2022/11/20 07:07:52;;;;;;;32.55;17.05;;;;;;;-0.88;77.86;99848.51;2837411;82;20985;-87
2022/11/20 07:11:53;;;;;;;33.58;18.10;;;;;;;-0.76;77.56;99842.78;2828428;82;21016;-86
2022/11/20 07:15:55;;;;;;;35.60;18.62;;;;;;;-0.64;77.65;99841.86;2838286;82;21519;-86
2022/11/20 07:19:56;;;;;;;33.13;19.57;;;;;;;-0.50;78.01;99836.89;2844946;82;21097;-86
2022/11/20 07:23:58;;;;;;;49.93;23.20;;;;;;;-0.35;77.56;99835.84;2845945;80;21617;-86
2022/11/20 07:28:00;;;;;;;36.20;20.95;;;;;;;-0.38;76.90;99834.68;2843609;80;21032;-87
2022/11/20 07:32:02;;;;;;;28.50;18.20;;;;;;;-0.48;76.79;99840.77;2835208;80;21106;-87
2022/11/20 07:36:04;;;;;;;33.10;18.82;;;;;;;-0.58;77.02;99837.70;2839281;82;21570;-87
2022/11/20 07:40:06;;;;;;;21.52;14.60;;;;;;;-0.59;78.10;99830.30;2835834;81;21410;-87
2022/11/20 07:44:07;;;;;;;35.70;25.43;;;;;;;-0.65;78.21;99829.71;2792133;82;21048;-87
2022/11/20 07:48:08;;;;;;;41.25;22.62;;;;;;;-0.56;79.30;99826.72;2825327;82;21064;-87
2022/11/20 07:52:09;;;;;;;47.08;28.25;;;;;;;-0.33;79.85;99827.48;2814519;82;21650;-87
2022/11/20 07:56:11;;;;;;;39.75;25.85;;;;;;;-0.21;79.09;99821.69;2825022;82;20988;-87
2022/11/20 08:00:14;;;;;;;37.63;22.02;;;;;;;-0.07;78.07;99813.69;2850462;80;21566;-86
2022/11/20 08:04:16;;;;;;;39.45;27.50;;;;;;;-0.07;78.16;99811.94;2822549;82;20972;-87
2022/11/20 08:08:17;;;;;;;51.25;31.35;;;;;;;0.10;78.05;99813.77;2857528;82;21020;-87
2022/11/20 08:16:46;;;;;;;29.67;18.87;;;;;;;0.39;77.25;99811.59;2839569;81;21032;-87
2022/11/20 08:20:47;;;;;;;29.80;19.77;;;;;;;0.40;77.04;99809.35;2840473;82;21043;-87
2022/11/20 08:24:48;;;;;;;31.52;21.77;;;;;;;0.46;76.49;99805.57;2845523;81;21008;-87
2022/11/20 08:28:56;;;;;;;39.42;23.57;;;;;;;0.60;76.47;99804.94;2860726;81;21054;-87
2022/11/20 08:33:08;;;;;;;28.00;20.97;;;;;;;0.75;75.55;99802.47;2816242;82;21032;-87
2022/11/20 08:37:09;;;;;;;22.48;17.32;;;;;;;0.90;75.49;99804.34;2843355;82;21016;-87
2022/11/20 08:41:32;;;;;;;33.33;20.35;;;;;;;0.96;76.68;99806.65;2845528;81;21036;-87
2022/11/20 08:45:29;;;;;;;23.38;16.00;;;;;;;1.02;77.12;99808.60;2820657;83;21043;-88
2022/11/20 08:49:30;;;;;;;21.37;16.20;;;;;;;1.02;77.08;99805.50;2795681;82;21071;-89
2022/11/20 08:53:32;;;;;;;25.43;16.55;;;;;;;1.14;76.06;99798.80;2835174;82;21150;-89
2022/11/20 08:57:43;;;;;;;27.95;19.00;;;;;;;1.38;75.51;99802.43;2833286;83;21020;-89
2022/11/20 09:01:44;;;;;;;25.32;17.10;;;;;;;1.60;75.89;99798.69;2809032;82;21059;-89
2022/11/20 09:05:46;;;;;;;23.73;13.83;;;;;;;1.76;73.23;99790.85;2830436;82;21128;-89
2022/11/20 09:09:47;;;;;;;23.70;15.72;;;;;;;1.77;72.13;99787.30;2821939;82;21560;-88
2022/11/20 09:13:49;;;;;;;24.25;14.45;;;;;;;1.83;71.68;99786.97;2835356;82;21038;-88
2022/11/20 09:17:54;;;;;;;23.83;15.88;;;;;;;1.84;72.50;99787.34;2817824;82;21583;-88
2022/11/20 09:21:56;;;;;;;29.12;18.80;;;;;;;1.89;71.27;99786.66;2824910;82;21011;-89
2022/11/20 09:25:59;;;;;;;29.42;20.35;;;;;;;2.03;70.86;99784.59;2838478;82;21123;-88
2022/11/20 09:30:03;;;;;;;26.45;17.95;;;;;;;2.22;69.79;99786.21;2836343;82;21004;-88
2022/11/20 09:34:05;;;;;;;23.07;15.48;;;;;;;2.35;69.43;99788.52;2835525;82;21075;-88
2022/11/20 09:38:07;;;;;;;25.62;14.58;;;;;;;2.35;67.21;99775.87;2838668;82;21105;-89
2022/11/20 09:42:38;;;;;;;34.25;17.95;;;;;;;2.35;66.60;99779.81;2817024;82;21035;-88
2022/11/20 09:46:50;;;;;;;35.38;22.32;;;;;;;2.43;66.75;99777.13;2822295;82;21111;-89
2022/11/20 09:51:18;;;;;;;28.42;16.17;;;;;;;2.59;67.90;99770.16;2808198;82;21090;-89
2022/11/20 09:55:19;;;;;;;29.87;19.37;;;;;;;2.79;67.17;99759.84;2822582;83;21107;-89
2022/11/20 09:59:46;;;;;;;37.65;18.25;;;;;;;2.89;66.23;99739.97;2802872;83;21622;-89
2022/11/20 10:04:16;;;;;;;29.70;19.48;;;;;;;2.94;64.36;99722.62;2844776;83;21060;-88
2022/11/20 10:08:31;;;;;;;38.50;24.72;;;;;;;2.98;65.36;99722.36;2816606;82;21591;-88
2022/11/20 10:12:59;;;;;;;28.25;18.02;;;;;;;2.97;65.26;99729.01;2799781;82;21417;-89
2022/11/20 10:17:15;;;;;;;33.58;20.45;;;;;;;2.98;66.38;99728.93;2813231;81;21078;-89
2022/11/20 10:21:51;;;;;;;26.07;18.02;;;;;;;3.07;64.46;99734.56;2807562;82;21115;-90
2022/11/20 10:26:24;;;;;;;28.47;20.27;;;;;;;3.12;65.12;99728.55;2805261;82;21394;-90
2022/11/20 10:30:26;;;;;;;28.92;17.87;;;;;;;3.06;65.59;99721.05;2808637;83;21034;-90
2022/11/20 10:34:45;;;;;;;53.23;28.60;;;;;;;3.10;66.54;99713.34;2820811;82;21054;-89
2022/11/20 10:38:52;;;;;;;40.88;25.97;;;;;;;2.96;65.94;99700.59;2812821;83;21338;-89
2022/11/20 10:42:59;;;;;;;53.08;35.10;;;;;;;2.99;66.47;99692.97;2817089;83;21063;-90
2022/11/20 10:47:00;;;;;;;53.65;29.48;;;;;;;3.00;67.28;99691.58;2826250;82;21099;-90
2022/11/20 10:51:33;;;;;;;43.68;25.40;;;;;;;2.87;66.70;99689.30;2834099;82;21547;-88
2022/11/20 10:55:48;;;;;;;39.18;23.18;;;;;;;2.95;67.85;99691.02;2817654;82;21080;-88
2022/11/20 10:59:58;;;;;;;39.90;25.97;;;;;;;2.87;68.31;99691.09;2831419;83;21091;-89
2022/11/20 11:04:00;;;;;;;42.35;27.05;;;;;;;2.81;67.87;99688.36;2834463;82;21589;-89
2022/11/20 11:08:03;;;;;;;38.45;24.30;;;;;;;2.78;68.83;99676.23;2819304;83;21083;-88
2022/11/20 11:12:10;;;;;;;44.38;28.65;;;;;;;2.71;69.89;99667.88;2798920;82;21032;-88
2022/11/20 11:16:25;;;;;;;40.40;26.95;;;;;;;2.77;70.08;99667.16;2810372;83;21015;-90
2022/11/20 11:20:27;;;;;;;36.57;25.37;;;;;;;2.77;70.27;99664.53;2815975;83;21543;-90
2022/11/20 11:24:30;;;;;;;39.35;28.12;;;;;;;2.81;70.07;99652.89;2779567;83;21008;-90
2022/11/20 11:28:32;;;;;;;32.23;21.60;;;;;;;2.93;70.84;99652.14;2805309;83;21059;-89
2022/11/20 11:32:33;;;;;;;35.25;21.15;;;;;;;3.02;70.61;99652.54;2827469;83;21103;-89
2022/11/20 11:36:36;;;;;;;28.57;18.15;;;;;;;3.13;70.89;99654.03;2827047;82;21496;-88
2022/11/20 11:40:40;;;;;;;33.63;19.90;;;;;;;3.21;69.90;99656.19;2803688;82;21036;-90
2022/11/20 11:49:22;;;;;;;32.85;19.57;;;;;;;3.40;69.27;99645.40;2832712;83;21087;-91
2022/11/20 11:53:27;;;;;;;25.12;18.00;;;;;;;3.49;68.94;99636.09;2835445;82;21079;-92
2022/11/20 11:57:45;;;;;;;23.38;16.60;;;;;;;3.49;68.09;99629.03;2777309;85;21583;-90
2022/11/20 12:01:55;;;;;;;31.27;17.55;;;;;;;3.57;69.28;99627.23;2826676;83;21572;-91
2022/11/20 12:06:15;;;;;;;26.23;17.07;;;;;;;3.64;69.25;99615.86;2818202;82;21600;-90
2022/11/20 12:10:31;;;;;;;32.38;16.77;;;;;;;3.65;68.84;99617.09;2758982;85;21122;-90
2022/11/20 12:14:42;;;;;;;30.73;17.53;;;;;;;3.62;67.92;99616.43;2831351;82;21062;-92
2022/11/20 12:18:43;;;;;;;30.00;20.27;;;;;;;3.56;67.83;99618.52;2828782;82;21094;-90
2022/11/20 12:22:56;;;;;;;30.62;19.57;;;;;;;3.57;69.52;99612.77;2775633;84;21040;-90
2022/11/20 12:27:34;;;;;;;23.75;15.38;;;;;;;3.57;69.31;99603.11;2766421;83;21044;-90
2022/11/20 12:31:49;;;;;;;23.73;17.25;;;;;;;3.64;68.70;99605.34;2763365;84;21055;-90
2022/11/20 12:36:25;;;;;;;26.93;17.70;;;;;;;3.57;67.47;99608.38;2835605;83;20996;-91
2022/11/20 12:40:44;;;;;;;26.07;18.80;;;;;;;3.54;67.57;99598.50;2814323;82;21106;-88
2022/11/20 12:45:09;;;;;;;25.62;19.07;;;;;;;3.62;69.12;99590.13;2844996;81;21040;-89
2022/11/20 12:49:29;;;;;;;26.70;20.70;;;;;;;3.68;69.03;99577.89;2900316;79;21094;-89
2022/11/20 12:54:00;;;;;;;22.75;15.95;;;;;;;3.65;68.17;99578.09;2946854;79;21051;-89
2022/11/20 12:58:25;;;;;;;24.35;16.25;;;;;;;3.63;67.63;99577.35;2862638;81;21740;-89
2022/11/20 13:02:47;;;;;;;21.90;14.33;;;;;;;3.59;67.36;99562.72;2986095;77;21083;-89
2022/11/20 13:06:48;;;;;;;30.72;16.90;;;;;;;3.62;68.50;99575.66;3007123;77;21046;-90
2022/11/20 13:10:58;;;;;;;24.12;15.30;;;;;;;3.62;69.14;99563.83;3001607;78;21025;-91
2022/11/20 13:15:11;;;;;;;25.57;17.02;;;;;;;3.59;67.97;99558.77;2994185;78;21003;-88
2022/11/20 13:19:15;;;;;;;27.17;17.50;;;;;;;3.56;69.21;99553.23;2997882;79;21054;-92
2022/11/20 13:23:26;;;;;;;27.52;18.90;;;;;;;3.59;69.42;99549.08;3003021;77;21101;-89
2022/11/20 13:27:30;;;;;;;28.17;17.02;;;;;;;3.61;68.02;99545.05;3011593;77;21046;-88
2022/11/20 13:31:35;;;;;;;21.30;16.23;;;;;;;3.69;68.73;99534.86;2965553;79;21014;-90
2022/11/20 13:35:42;;;;;;;27.00;17.40;;;;;;;3.71;68.42;99530.34;2990675;79;21378;-87
2022/11/20 13:39:43;;;;;;;29.67;19.05;;;;;;;3.71;66.80;99530.34;2971290;77;21010;-89
2022/11/20 13:43:48;;;;;;;28.60;17.40;;;;;;;3.64;67.46;99530.38;2933018;77;20961;-90
2022/11/20 13:47:51;;;;;;;29.90;17.48;;;;;;;3.67;67.50;99540.69;2985140;77;21042;-91
2022/11/20 13:52:01;;;;;;;28.45;17.57;;;;;;;3.60;68.36;99542.05;2905894;79;20983;-91
2022/11/20 13:56:27;;;;;;;26.77;18.82;;;;;;;3.51;69.34;99546.11;2995232;77;20969;-93
2022/11/20 14:00:28;;;;;;;38.45;23.00;;;;;;;3.51;69.02;99548.74;2992475;77;20986;-88
2022/11/20 14:04:33;;;;;;;29.05;19.87;;;;;;;3.38;65.24;99556.58;3007520;76;21036;-90
2022/11/20 14:08:47;;;;;;;34.58;18.48;;;;;;;3.35;67.79;99553.66;2998246;77;21063;-89
2022/11/20 14:12:48;;;;;;;26.85;17.15;;;;;;;3.27;67.96;99549.38;2985284;77;20969;-90
2022/11/20 14:16:52;;;;;;;22.93;17.62;;;;;;;3.23;68.09;99547.39;2991113;77;21895;-90
2022/11/20 14:21:00;;;;;;;22.15;16.40;;;;;;;3.19;68.11;99547.22;2997040;77;21368;-88
2022/11/20 14:25:06;;;;;;;33.15;19.10;;;;;;;3.20;68.64;99539.71;2999906;77;21009;-87
2022/11/20 14:29:25;;;;;;;;;;;;;;;3.25;68.36;99542.06;2990641;77;21003;-91
2022/11/20 14:33:27;;;;;;;27.82;18.85;;;;;;;3.27;68.87;99535.74;2983799;77;20145;-92
2022/11/20 14:37:33;;;;;;;34.18;21.30;;;;;;;3.23;68.97;99535.56;2993981;77;21012;-94
2022/11/20 14:41:35;;;;;;;30.68;19.05;;;;;;;3.19;68.79;99531.45;2987589;77;20995;-92
2022/11/20 14:45:38;;;;;;;31.77;20.20;;;;;;;3.12;68.56;99523.11;3005194;77;21574;-90
2022/11/20 14:49:48;;;;;;;34.45;20.72;;;;;;;3.06;68.43;99526.59;3003593;77;21048;-92
2022/11/20 14:53:51;;;;;;;33.10;19.85;;;;;;;2.97;68.76;99531.49;2990691;77;20988;-95
2022/11/20 14:58:00;;;;;;;38.28;25.37;;;;;;;2.87;69.07;99516.40;2988825;77;21019;-93
2022/11/20 15:02:10;;;;;;;41.90;25.08;;;;;;;2.79;69.02;99515.07;2978277;79;21836;-92
2022/11/20 15:06:12;;;;;;;39.38;25.57;;;;;;;2.70;69.36;99519.11;2964204;79;21012;-93
2022/11/20 15:10:28;;;;;;;43.45;25.15;;;;;;;2.59;69.57;99524.19;2979875;77;21526;-96
2022/11/20 15:14:32;;;;;;;36.20;24.35;;;;;;;2.50;69.89;99523.42;2964594;77;21015;-93
2022/11/20 15:18:43;;;;;;;38.48;23.40;;;;;;;2.40;70.22;99521.36;2954961;79;20977;-93
2022/11/20 15:22:44;;;;;;;31.17;21.42;;;;;;;2.30;70.48;99526.77;2972751;77;21586;-92
2022/11/20 15:26:48;;;;;;;39.45;22.60;;;;;;;2.18;71.18;99524.90;2951817;79;21109;-96
2022/11/20 15:30:51;;;;;;;31.68;20.88;;;;;;;2.11;71.83;99533.11;2959926;79;21004;-93
2022/11/20 15:34:53;;;;;;;42.50;23.85;;;;;;;2.03;72.59;99539.29;2977030;79;21063;-96
2022/11/20 15:38:54;;;;;;;37.50;21.77;;;;;;;1.96;73.29;99539.25;2956466;77;21008;-95
2022/11/20 15:43:06;;;;;;;38.98;20.85;;;;;;;1.89;73.49;99538.78;3009592;78;21584;-89
2022/11/20 15:47:09;;;;;;;35.28;21.52;;;;;;;1.83;73.79;99547.84;2981012;79;20996;-94
2022/11/20 15:51:25;;;;;;;27.93;20.72;;;;;;;1.77;74.24;99545.59;2948138;79;21669;-92
2022/11/20 15:55:26;;;;;;;34.33;21.60;;;;;;;1.65;73.99;99538.41;2919242;81;21050;-90
2022/11/20 15:59:28;;;;;;;36.95;21.68;;;;;;;1.56;74.92;99531.42;2804345;82;21751;-94
2022/11/20 16:03:30;;;;;;;36.53;21.50;;;;;;;1.51;75.81;99532.16;2914209;80;21023;-89
2022/11/20 16:07:31;;;;;;;27.70;18.90;;;;;;;1.48;76.19;99538.89;2914292;81;20992;-87
2022/11/20 16:11:36;;;;;;;33.58;22.02;;;;;;;1.21;78.15;99541.27;2892602;80;20994;-89
2022/11/20 16:15:46;;;;;;;34.20;20.75;;;;;;;0.82;79.55;99537.63;2881101;80;21124;-91
2022/11/20 16:19:48;;;;;;;38.70;26.52;;;;;;;0.48;81.30;99535.95;2874335;79;21003;-93
2022/11/20 16:23:49;;;;;;;45.78;29.30;;;;;;;0.34;82.69;99538.81;2889395;80;21022;-91
2022/11/20 16:27:51;;;;;;;47.08;30.40;;;;;;;0.31;82.77;99536.36;2832906;82;21062;-93
2022/11/20 16:31:52;;;;;;;46.30;28.75;;;;;;;0.37;82.48;99534.73;2921560;80;20994;-95
2022/11/20 16:35:53;;;;;;;45.83;27.50;;;;;;;0.46;82.67;99537.81;2893778;81;21106;-94
2022/11/20 16:39:56;;;;;;;42.70;24.90;;;;;;;0.52;82.51;99534.87;2909264;81;21589;-90
2022/11/20 16:44:00;;;;;;;36.23;21.12;;;;;;;0.54;81.38;99532.56;2901621;80;21011;-92
2022/11/20 16:48:01;;;;;;;24.45;19.62;;;;;;;0.54;81.64;99531.70;2917401;80;21034;-94
2022/11/20 16:52:04;;;;;;;26.93;15.25;;;;;;;0.53;81.50;99540.03;2912042;81;30820;-95
2022/11/20 16:56:12;;;;;;;28.92;14.85;;;;;;;0.57;81.88;99534.16;2861085;80;21057;-92
2022/11/20 17:00:15;;;;;;;25.43;16.07;;;;;;;0.60;82.15;99535.78;2914935;80;21099;-94
2022/11/20 17:04:16;;;;;;;23.90;14.75;;;;;;;0.59;82.15;99532.78;2913414;80;21037;-86
2022/11/20 17:08:18;;;;;;;20.72;13.13;;;;;;;0.58;82.10;99527.99;2897157;81;21047;-96
2022/11/20 17:12:20;;;;;;;21.35;14.68;;;;;;;0.60;82.28;99532.71;2914102;80;20983;-92
2022/11/20 17:16:23;;;;;;;21.77;14.30;;;;;;;0.67;81.95;99540.61;2896398;81;21015;-93
2022/11/20 17:20:25;;;;;;;28.73;17.62;;;;;;;0.70;81.48;99537.83;2900300;81;21003;-92
2022/11/20 17:24:26;;;;;;;19.87;12.98;;;;;;;0.74;81.57;99541.14;2915910;80;22148;-93
2022/11/20 17:28:28;;;;;;;21.45;15.43;;;;;;;0.78;81.95;99544.42;2913688;81;21577;-94
2022/11/20 17:32:29;;;;;;;29.80;14.80;;;;;;;0.85;81.27;99532.70;2916337;81;21059;-95
2022/11/20 17:36:31;;;;;;;20.20;14.00;;;;;;;0.79;80.86;99526.02;2916392;80;21530;-94
2022/11/20 17:40:32;;;;;;;25.62;13.45;;;;;;;0.67;81.08;99528.83;2907999;80;21041;-95
2022/11/20 17:44:34;;;;;;;30.30;14.63;;;;;;;0.56;81.80;99524.61;2887596;81;21027;-94
2022/11/20 17:48:36;;;;;;;23.45;13.30;;;;;;;0.45;82.16;99529.10;2914869;81;21055;-90
2022/11/20 17:52:37;;;;;;;20.35;13.93;;;;;;;0.40;82.17;99522.82;3003676;77;21522;-93
2022/11/20 18:01:07;;;;;;;26.12;19.57;;;;;;;0.50;81.10;99515.78;2989410;77;21034;-93
2022/11/20 18:05:08;;;;;;;27.80;17.67;;;;;;;0.49;80.94;99514.95;3011186;76;72311;-58
2022/11/20 18:09:11;;;;;;;26.10;17.55;;;;;;;0.50;80.50;99511.41;3015940;79;21027;-57
2022/11/20 18:13:19;;;;;;;30.15;18.65;;;;;;;0.53;80.45;99509.94;2989975;79;21018;-57
2022/11/20 18:17:22;;;;;;;32.90;21.27;;;;;;;0.55;79.76;99513.31;3010965;77;21042;-58
2022/11/20 18:21:26;;;;;;;32.85;22.25;;;;;;;0.46;79.76;99521.63;2946191;77;20990;-58
2022/11/20 18:25:27;;;;;;;34.95;23.85;;;;;;;0.47;80.06;99526.41;2945201;77;21026;-57
2022/11/20 18:29:30;;;;;;;38.33;24.27;;;;;;;0.50;80.41;99528.87;2982759;79;21524;-59
2022/11/20 18:33:33;;;;;;;40.17;24.92;;;;;;;0.55;80.45;99532.09;2957414;78;21031;-58
2022/11/20 18:37:34;;;;;;;40.48;26.35;;;;;;;0.56;81.25;99532.02;3002135;79;20987;-58
2022/11/20 18:46:03;;;;;;;42.70;24.52;;;;;;;0.48;82.50;99525.48;3004262;79;20984;-57
2022/11/20 18:50:08;;;;;;;41.00;25.48;;;;;;;0.50;82.86;99520.57;3033271;77;21003;-58
2022/11/20 18:54:11;;;;;;;35.38;22.48;;;;;;;0.56;82.57;99520.69;3016894;79;21042;-57
2022/11/20 18:58:12;;;;;;;38.35;21.27;;;;;;;0.62;81.73;99512.53;3006510;79;21008;-57
2022/11/20 19:02:30;;;;;;;39.25;21.33;;;;;;;0.64;81.25;99513.74;2956657;80;21042;-58
2022/11/20 19:06:31;;;;;;;38.53;24.85;;;;;;;0.60;81.11;99514.84;2850280;81;21007;-58
2022/11/20 19:10:32;;;;;;;47.35;28.42;;;;;;;0.53;80.95;99519.55;2929476;79;20995;-58
2022/11/20 19:14:34;;;;;;;50.08;30.35;;;;;;;0.47;80.94;99520.70;2919604;81;21011;-59
2022/11/20 19:18:36;;;;;;;65.42;38.67;;;;;;;0.48;80.93;99526.80;2955145;79;21066;-58